sensor_id;sensor_type;location;lat;lon;timestamp;P1;durP1;ratioP1;P2;durP2;ratioP2
46391;SDS011;32098;49.448;7.904;2023-03-01T00:01:03;15.80;;;9.37;;
46391;SDS011;32098;49.448;7.904;2023-03-01T00:03:34;13.40;;;8.73;;
46391;SDS011;32098;49.448;7.904;2023-03-01T00:06:01;15.20;;;9.33;;
46391;SDS011;32098;49.448;7.904;2023-03-01T00:08:29;13.47;;;9.47;;
46391;SDS011;32098;49.448;7.904;2023-03-01T00:11:00;13.13;;;8.70;;
46391;SDS011;32098;49.448;7.904;2023-03-01T00:13:34;16.37;;;9.10;;
46391;SDS011;32098;49.448;7.904;2023-03-01T00:16:02;12.73;;;8.03;;
46391;SDS011;32098;49.448;7.904;2023-03-01T00:18:30;13.23;;;8.90;;
46391;SDS011;32098;49.448;7.904;2023-03-01T00:20:57;14.33;;;8.53;;
46391;SDS011;32098;49.448;7.904;2023-03-01T00:23:23;13.17;;;8.07;;
46391;SDS011;32098;49.448;7.904;2023-03-01T00:25:50;14.10;;;9.00;;
46391;SDS011;32098;49.448;7.904;2023-03-01T00:28:17;15.30;;;8.70;;
46391;SDS011;32098;49.448;7.904;2023-03-01T00:30:44;14.40;;;8.63;;
46391;SDS011;32098;49.448;7.904;2023-03-01T00:33:11;13.60;;;8.80;;
46391;SDS011;32098;49.448;7.904;2023-03-01T00:35:38;15.00;;;8.80;;
46391;SDS011;32098;49.448;7.904;2023-03-01T00:38:04;14.03;;;9.23;;
46391;SDS011;32098;49.448;7.904;2023-03-01T00:40:32;14.57;;;9.47;;
46391;SDS011;32098;49.448;7.904;2023-03-01T00:43:00;15.07;;;9.43;;
46391;SDS011;32098;49.448;7.904;2023-03-01T00:45:28;14.37;;;9.53;;
46391;SDS011;32098;49.448;7.904;2023-03-01T00:47:55;15.20;;;8.80;;
46391;SDS011;32098;49.448;7.904;2023-03-01T00:50:21;17.37;;;9.83;;
46391;SDS011;32098;49.448;7.904;2023-03-01T00:52:53;16.27;;;9.10;;
46391;SDS011;32098;49.448;7.904;2023-03-01T00:55:21;16.03;;;9.87;;
46391;SDS011;32098;49.448;7.904;2023-03-01T00:57:48;16.97;;;9.97;;
46391;SDS011;32098;49.448;7.904;2023-03-01T01:00:15;15.40;;;9.10;;
46391;SDS011;32098;49.448;7.904;2023-03-01T01:02:42;15.47;;;9.60;;
46391;SDS011;32098;49.448;7.904;2023-03-01T01:05:09;13.17;;;8.80;;
46391;SDS011;32098;49.448;7.904;2023-03-01T01:07:36;15.03;;;9.03;;
46391;SDS011;32098;49.448;7.904;2023-03-01T01:10:03;16.80;;;9.77;;
46391;SDS011;32098;49.448;7.904;2023-03-01T01:12:30;14.00;;;9.60;;
46391;SDS011;32098;49.448;7.904;2023-03-01T01:14:57;14.53;;;9.43;;
46391;SDS011;32098;49.448;7.904;2023-03-01T01:17:24;17.17;;;9.93;;
46391;SDS011;32098;49.448;7.904;2023-03-01T01:19:50;16.07;;;9.60;;
46391;SDS011;32098;49.448;7.904;2023-03-01T01:22:17;16.33;;;9.30;;
46391;SDS011;32098;49.448;7.904;2023-03-01T01:24:43;16.93;;;10.10;;
46391;SDS011;32098;49.448;7.904;2023-03-01T01:27:10;17.90;;;10.50;;
46391;SDS011;32098;49.448;7.904;2023-03-01T01:29:37;16.37;;;9.33;;
46391;SDS011;32098;49.448;7.904;2023-03-01T01:32:04;17.33;;;10.07;;
46391;SDS011;32098;49.448;7.904;2023-03-01T01:34:31;17.77;;;9.90;;
46391;SDS011;32098;49.448;7.904;2023-03-01T01:36:57;16.03;;;9.97;;
46391;SDS011;32098;49.448;7.904;2023-03-01T01:39:28;18.23;;;10.00;;
46391;SDS011;32098;49.448;7.904;2023-03-01T01:41:55;17.30;;;10.63;;
46391;SDS011;32098;49.448;7.904;2023-03-01T01:44:24;19.40;;;10.93;;
46391;SDS011;32098;49.448;7.904;2023-03-01T01:52:03;19.30;;;11.07;;
46391;SDS011;32098;49.448;7.904;2023-03-01T01:54:43;18.07;;;10.80;;
46391;SDS011;32098;49.448;7.904;2023-03-01T01:57:22;16.20;;;10.17;;
46391;SDS011;32098;49.448;7.904;2023-03-01T01:59:54;16.40;;;11.07;;
46391;SDS011;32098;49.448;7.904;2023-03-01T02:02:25;18.07;;;10.70;;
46391;SDS011;32098;49.448;7.904;2023-03-01T02:04:53;19.47;;;11.10;;
46391;SDS011;32098;49.448;7.904;2023-03-01T02:07:29;16.30;;;10.90;;
46391;SDS011;32098;49.448;7.904;2023-03-01T02:09:56;15.20;;;9.93;;
46391;SDS011;32098;49.448;7.904;2023-03-01T02:12:24;18.77;;;10.87;;
46391;SDS011;32098;49.448;7.904;2023-03-01T02:14:51;17.97;;;11.00;;
46391;SDS011;32098;49.448;7.904;2023-03-01T02:17:18;16.20;;;10.73;;
46391;SDS011;32098;49.448;7.904;2023-03-01T02:19:56;17.07;;;10.70;;
46391;SDS011;32098;49.448;7.904;2023-03-01T02:22:34;18.60;;;10.43;;
46391;SDS011;32098;49.448;7.904;2023-03-01T02:30:33;18.30;;;11.10;;
46391;SDS011;32098;49.448;7.904;2023-03-01T02:33:02;17.27;;;10.83;;
46391;SDS011;32098;49.448;7.904;2023-03-01T02:35:32;17.33;;;10.23;;
46391;SDS011;32098;49.448;7.904;2023-03-01T02:38:01;16.43;;;10.83;;
46391;SDS011;32098;49.448;7.904;2023-03-01T02:40:29;18.00;;;10.70;;
46391;SDS011;32098;49.448;7.904;2023-03-01T02:42:58;17.37;;;10.47;;
46391;SDS011;32098;49.448;7.904;2023-03-01T02:45:26;18.57;;;11.10;;
46391;SDS011;32098;49.448;7.904;2023-03-01T02:47:53;18.77;;;11.20;;
46391;SDS011;32098;49.448;7.904;2023-03-01T02:50:39;18.67;;;11.80;;
46391;SDS011;32098;49.448;7.904;2023-03-01T02:56:19;19.50;;;11.93;;
46391;SDS011;32098;49.448;7.904;2023-03-01T02:58:45;19.70;;;12.17;;
46391;SDS011;32098;49.448;7.904;2023-03-01T03:01:18;17.93;;;11.77;;
46391;SDS011;32098;49.448;7.904;2023-03-01T03:03:46;19.50;;;11.90;;
46391;SDS011;32098;49.448;7.904;2023-03-01T03:06:13;18.40;;;11.00;;
46391;SDS011;32098;49.448;7.904;2023-03-01T03:08:40;16.37;;;10.77;;
46391;SDS011;32098;49.448;7.904;2023-03-01T03:11:06;18.70;;;11.20;;
46391;SDS011;32098;49.448;7.904;2023-03-01T03:13:33;24.37;;;13.37;;
46391;SDS011;32098;49.448;7.904;2023-03-01T03:16:00;22.30;;;12.80;;
46391;SDS011;32098;49.448;7.904;2023-03-01T03:18:29;22.70;;;13.30;;
46391;SDS011;32098;49.448;7.904;2023-03-01T03:20:57;23.33;;;12.33;;
46391;SDS011;32098;49.448;7.904;2023-03-01T03:23:23;19.57;;;11.70;;
46391;SDS011;32098;49.448;7.904;2023-03-01T03:25:50;19.30;;;11.70;;
46391;SDS011;32098;49.448;7.904;2023-03-01T03:28:17;21.57;;;12.40;;
46391;SDS011;32098;49.448;7.904;2023-03-01T03:30:44;19.57;;;12.00;;
46391;SDS011;32098;49.448;7.904;2023-03-01T03:33:11;19.03;;;11.40;;
46391;SDS011;32098;49.448;7.904;2023-03-01T03:35:40;20.40;;;11.47;;
46391;SDS011;32098;49.448;7.904;2023-03-01T03:38:09;22.33;;;11.87;;
46391;SDS011;32098;49.448;7.904;2023-03-01T03:41:03;20.20;;;11.13;;
46391;SDS011;32098;49.448;7.904;2023-03-01T03:43:31;19.30;;;11.70;;
46391;SDS011;32098;49.448;7.904;2023-03-01T03:45:59;19.40;;;12.20;;
46391;SDS011;32098;49.448;7.904;2023-03-01T03:48:26;21.60;;;12.13;;
46391;SDS011;32098;49.448;7.904;2023-03-01T03:50:54;19.63;;;12.00;;
46391;SDS011;32098;49.448;7.904;2023-03-01T03:53:23;18.70;;;12.10;;
46391;SDS011;32098;49.448;7.904;2023-03-01T03:55:51;16.97;;;11.20;;
46391;SDS011;32098;49.448;7.904;2023-03-01T03:58:18;17.77;;;11.93;;
46391;SDS011;32098;49.448;7.904;2023-03-01T04:00:47;19.60;;;10.90;;
46391;SDS011;32098;49.448;7.904;2023-03-01T04:03:15;20.33;;;11.93;;
46391;SDS011;32098;49.448;7.904;2023-03-01T04:05:44;21.30;;;11.73;;
46391;SDS011;32098;49.448;7.904;2023-03-01T04:08:11;21.73;;;12.97;;
46391;SDS011;32098;49.448;7.904;2023-03-01T04:13:07;22.57;;;13.10;;
46391;SDS011;32098;49.448;7.904;2023-03-01T04:15:35;16.70;;;10.63;;
46391;SDS011;32098;49.448;7.904;2023-03-01T04:18:02;18.67;;;11.93;;
46391;SDS011;32098;49.448;7.904;2023-03-01T04:20:30;21.90;;;11.77;;
46391;SDS011;32098;49.448;7.904;2023-03-01T04:23:04;22.43;;;12.53;;
46391;SDS011;32098;49.448;7.904;2023-03-01T04:25:45;19.47;;;12.43;;
46391;SDS011;32098;49.448;7.904;2023-03-01T04:28:12;20.70;;;12.67;;
46391;SDS011;32098;49.448;7.904;2023-03-01T04:30:38;20.13;;;11.60;;
46391;SDS011;32098;49.448;7.904;2023-03-01T04:33:05;19.47;;;12.40;;
46391;SDS011;32098;49.448;7.904;2023-03-01T04:35:33;20.47;;;11.53;;
46391;SDS011;32098;49.448;7.904;2023-03-01T04:38:01;21.03;;;12.73;;
46391;SDS011;32098;49.448;7.904;2023-03-01T04:40:28;18.43;;;12.27;;
46391;SDS011;32098;49.448;7.904;2023-03-01T04:42:55;19.60;;;12.10;;
46391;SDS011;32098;49.448;7.904;2023-03-01T04:45:21;18.73;;;12.03;;
46391;SDS011;32098;49.448;7.904;2023-03-01T04:47:48;18.73;;;11.87;;
46391;SDS011;32098;49.448;7.904;2023-03-01T04:50:16;19.80;;;11.77;;
46391;SDS011;32098;49.448;7.904;2023-03-01T04:52:43;19.23;;;12.37;;
46391;SDS011;32098;49.448;7.904;2023-03-01T04:55:10;19.80;;;12.33;;
46391;SDS011;32098;49.448;7.904;2023-03-01T04:57:37;21.73;;;12.37;;
46391;SDS011;32098;49.448;7.904;2023-03-01T05:00:04;21.80;;;13.13;;
46391;SDS011;32098;49.448;7.904;2023-03-01T05:03:04;22.77;;;13.30;;
46391;SDS011;32098;49.448;7.904;2023-03-01T05:05:31;21.30;;;12.70;;
46391;SDS011;32098;49.448;7.904;2023-03-01T05:08:00;23.30;;;13.53;;
46391;SDS011;32098;49.448;7.904;2023-03-01T05:10:29;22.60;;;12.90;;
46391;SDS011;32098;49.448;7.904;2023-03-01T05:12:57;20.63;;;13.07;;
46391;SDS011;32098;49.448;7.904;2023-03-01T05:15:28;24.47;;;14.07;;
46391;SDS011;32098;49.448;7.904;2023-03-01T05:17:56;23.93;;;13.70;;
46391;SDS011;32098;49.448;7.904;2023-03-01T05:20:26;21.63;;;13.17;;
46391;SDS011;32098;49.448;7.904;2023-03-01T05:22:55;22.30;;;13.17;;
46391;SDS011;32098;49.448;7.904;2023-03-01T05:25:25;24.83;;;13.50;;
46391;SDS011;32098;49.448;7.904;2023-03-01T05:27:53;23.00;;;13.57;;
46391;SDS011;32098;49.448;7.904;2023-03-01T05:30:19;25.13;;;14.20;;
46391;SDS011;32098;49.448;7.904;2023-03-01T05:32:47;26.50;;;14.63;;
46391;SDS011;32098;49.448;7.904;2023-03-01T05:35:16;25.33;;;14.43;;
46391;SDS011;32098;49.448;7.904;2023-03-01T05:37:44;23.90;;;14.67;;
46391;SDS011;32098;49.448;7.904;2023-03-01T05:40:13;22.57;;;13.40;;
46391;SDS011;32098;49.448;7.904;2023-03-01T05:42:46;22.90;;;13.53;;
46391;SDS011;32098;49.448;7.904;2023-03-01T05:45:15;23.53;;;14.00;;
46391;SDS011;32098;49.448;7.904;2023-03-01T05:47:43;24.83;;;14.47;;
46391;SDS011;32098;49.448;7.904;2023-03-01T05:50:12;23.77;;;13.87;;
46391;SDS011;32098;49.448;7.904;2023-03-01T05:52:49;23.17;;;14.20;;
46391;SDS011;32098;49.448;7.904;2023-03-01T05:55:18;22.47;;;14.07;;
46391;SDS011;32098;49.448;7.904;2023-03-01T05:57:46;24.20;;;13.67;;
46391;SDS011;32098;49.448;7.904;2023-03-01T06:00:13;23.50;;;14.53;;
46391;SDS011;32098;49.448;7.904;2023-03-01T06:02:43;22.07;;;13.97;;
46391;SDS011;32098;49.448;7.904;2023-03-01T06:05:13;23.63;;;14.20;;
46391;SDS011;32098;49.448;7.904;2023-03-01T06:07:40;25.50;;;14.90;;
46391;SDS011;32098;49.448;7.904;2023-03-01T06:10:08;23.13;;;13.20;;
46391;SDS011;32098;49.448;7.904;2023-03-01T06:12:36;28.43;;;14.77;;
46391;SDS011;32098;49.448;7.904;2023-03-01T06:15:04;23.10;;;14.00;;
46391;SDS011;32098;49.448;7.904;2023-03-01T06:17:33;21.97;;;13.77;;
46391;SDS011;32098;49.448;7.904;2023-03-01T06:20:23;22.37;;;14.07;;
46391;SDS011;32098;49.448;7.904;2023-03-01T06:22:51;23.03;;;13.67;;
46391;SDS011;32098;49.448;7.904;2023-03-01T06:25:19;24.40;;;14.23;;
46391;SDS011;32098;49.448;7.904;2023-03-01T06:27:48;23.73;;;14.27;;
46391;SDS011;32098;49.448;7.904;2023-03-01T06:30:15;23.47;;;14.60;;
46391;SDS011;32098;49.448;7.904;2023-03-01T06:32:44;23.60;;;14.27;;
46391;SDS011;32098;49.448;7.904;2023-03-01T06:35:11;25.73;;;13.70;;
46391;SDS011;32098;49.448;7.904;2023-03-01T06:37:40;21.53;;;12.93;;
46391;SDS011;32098;49.448;7.904;2023-03-01T06:40:07;21.30;;;13.53;;
46391;SDS011;32098;49.448;7.904;2023-03-01T06:42:35;20.60;;;13.83;;
46391;SDS011;32098;49.448;7.904;2023-03-01T06:45:02;24.87;;;14.80;;
46391;SDS011;32098;49.448;7.904;2023-03-01T06:47:31;27.17;;;14.93;;
46391;SDS011;32098;49.448;7.904;2023-03-01T06:49:59;23.93;;;14.53;;
46391;SDS011;32098;49.448;7.904;2023-03-01T06:52:26;25.23;;;14.33;;
46391;SDS011;32098;49.448;7.904;2023-03-01T06:54:53;25.03;;;14.60;;
46391;SDS011;32098;49.448;7.904;2023-03-01T06:57:20;27.27;;;14.57;;
46391;SDS011;32098;49.448;7.904;2023-03-01T06:59:46;22.00;;;14.27;;
46391;SDS011;32098;49.448;7.904;2023-03-01T07:02:14;24.70;;;14.87;;
46391;SDS011;32098;49.448;7.904;2023-03-01T07:04:41;22.43;;;14.30;;
46391;SDS011;32098;49.448;7.904;2023-03-01T07:07:08;24.53;;;14.30;;
46391;SDS011;32098;49.448;7.904;2023-03-01T07:09:35;24.33;;;14.37;;
46391;SDS011;32098;49.448;7.904;2023-03-01T07:12:01;20.93;;;14.30;;
46391;SDS011;32098;49.448;7.904;2023-03-01T07:14:28;22.10;;;13.60;;
46391;SDS011;32098;49.448;7.904;2023-03-01T07:16:55;27.80;;;15.67;;
46391;SDS011;32098;49.448;7.904;2023-03-01T07:19:22;24.57;;;15.17;;
46391;SDS011;32098;49.448;7.904;2023-03-01T07:21:48;25.27;;;15.00;;
46391;SDS011;32098;49.448;7.904;2023-03-01T07:24:15;22.53;;;14.33;;
46391;SDS011;32098;49.448;7.904;2023-03-01T07:26:42;22.60;;;14.03;;
46391;SDS011;32098;49.448;7.904;2023-03-01T07:29:09;25.00;;;14.37;;
46391;SDS011;32098;49.448;7.904;2023-03-01T07:31:36;21.10;;;13.93;;
46391;SDS011;32098;49.448;7.904;2023-03-01T07:34:03;21.20;;;14.10;;
46391;SDS011;32098;49.448;7.904;2023-03-01T07:36:30;24.47;;;14.57;;
46391;SDS011;32098;49.448;7.904;2023-03-01T07:38:57;22.17;;;13.73;;
46391;SDS011;32098;49.448;7.904;2023-03-01T07:41:24;22.57;;;13.43;;
46391;SDS011;32098;49.448;7.904;2023-03-01T07:43:51;21.80;;;14.57;;
46391;SDS011;32098;49.448;7.904;2023-03-01T07:46:17;23.83;;;14.37;;
46391;SDS011;32098;49.448;7.904;2023-03-01T07:48:45;21.07;;;13.60;;
46391;SDS011;32098;49.448;7.904;2023-03-01T07:51:12;24.07;;;14.23;;
46391;SDS011;32098;49.448;7.904;2023-03-01T07:53:39;24.73;;;14.50;;
46391;SDS011;32098;49.448;7.904;2023-03-01T07:56:07;22.43;;;13.87;;
46391;SDS011;32098;49.448;7.904;2023-03-01T07:58:39;20.30;;;13.53;;
46391;SDS011;32098;49.448;7.904;2023-03-01T08:01:09;22.23;;;14.23;;
46391;SDS011;32098;49.448;7.904;2023-03-01T08:03:37;21.60;;;13.60;;
46391;SDS011;32098;49.448;7.904;2023-03-01T08:06:05;24.10;;;13.30;;
46391;SDS011;32098;49.448;7.904;2023-03-01T08:08:34;23.37;;;13.50;;
46391;SDS011;32098;49.448;7.904;2023-03-01T08:11:02;23.67;;;13.63;;
46391;SDS011;32098;49.448;7.904;2023-03-01T08:13:30;23.60;;;14.20;;
46391;SDS011;32098;49.448;7.904;2023-03-01T08:16:04;21.80;;;13.07;;
46391;SDS011;32098;49.448;7.904;2023-03-01T08:18:34;23.77;;;15.53;;
46391;SDS011;32098;49.448;7.904;2023-03-01T08:21:01;25.07;;;14.63;;
46391;SDS011;32098;49.448;7.904;2023-03-01T08:23:29;24.37;;;13.67;;
46391;SDS011;32098;49.448;7.904;2023-03-01T08:26:03;21.87;;;13.97;;
46391;SDS011;32098;49.448;7.904;2023-03-01T08:28:41;24.50;;;14.63;;
46391;SDS011;32098;49.448;7.904;2023-03-01T08:33:40;22.57;;;14.17;;
46391;SDS011;32098;49.448;7.904;2023-03-01T08:36:07;23.20;;;13.73;;
46391;SDS011;32098;49.448;7.904;2023-03-01T08:38:34;23.93;;;14.67;;
46391;SDS011;32098;49.448;7.904;2023-03-01T08:41:01;21.60;;;13.77;;
46391;SDS011;32098;49.448;7.904;2023-03-01T08:43:29;21.87;;;14.30;;
46391;SDS011;32098;49.448;7.904;2023-03-01T08:45:56;24.20;;;14.57;;
46391;SDS011;32098;49.448;7.904;2023-03-01T08:48:23;23.77;;;14.70;;
46391;SDS011;32098;49.448;7.904;2023-03-01T08:50:50;24.73;;;14.97;;
46391;SDS011;32098;49.448;7.904;2023-03-01T08:53:16;23.57;;;14.37;;
46391;SDS011;32098;49.448;7.904;2023-03-01T08:55:43;23.43;;;14.90;;
46391;SDS011;32098;49.448;7.904;2023-03-01T08:58:10;24.20;;;14.73;;
46391;SDS011;32098;49.448;7.904;2023-03-01T09:00:37;25.07;;;14.40;;
46391;SDS011;32098;49.448;7.904;2023-03-01T09:03:04;22.00;;;13.67;;
46391;SDS011;32098;49.448;7.904;2023-03-01T09:05:31;22.03;;;14.57;;
46391;SDS011;32098;49.448;7.904;2023-03-01T09:07:58;24.07;;;13.90;;
46391;SDS011;32098;49.448;7.904;2023-03-01T09:10:26;23.40;;;13.83;;
46391;SDS011;32098;49.448;7.904;2023-03-01T09:12:52;24.67;;;14.60;;
46391;SDS011;32098;49.448;7.904;2023-03-01T09:15:19;25.10;;;15.30;;
46391;SDS011;32098;49.448;7.904;2023-03-01T09:17:46;22.40;;;14.20;;
46391;SDS011;32098;49.448;7.904;2023-03-01T09:20:13;23.63;;;14.33;;
46391;SDS011;32098;49.448;7.904;2023-03-01T09:22:40;23.20;;;14.00;;
46391;SDS011;32098;49.448;7.904;2023-03-01T09:25:06;21.60;;;13.67;;
46391;SDS011;32098;49.448;7.904;2023-03-01T09:27:33;22.13;;;14.87;;
46391;SDS011;32098;49.448;7.904;2023-03-01T09:30:00;23.73;;;14.23;;
46391;SDS011;32098;49.448;7.904;2023-03-01T09:32:29;21.93;;;14.50;;
46391;SDS011;32098;49.448;7.904;2023-03-01T09:34:57;22.27;;;14.00;;
46391;SDS011;32098;49.448;7.904;2023-03-01T09:37:32;20.20;;;14.33;;
46391;SDS011;32098;49.448;7.904;2023-03-01T09:40:00;22.50;;;14.40;;
46391;SDS011;32098;49.448;7.904;2023-03-01T09:42:27;18.67;;;13.60;;
46391;SDS011;32098;49.448;7.904;2023-03-01T09:44:59;26.40;;;15.23;;
46391;SDS011;32098;49.448;7.904;2023-03-01T09:47:31;22.50;;;14.47;;
46391;SDS011;32098;49.448;7.904;2023-03-01T09:52:47;20.77;;;14.03;;
46391;SDS011;32098;49.448;7.904;2023-03-01T09:55:17;21.97;;;13.80;;
46391;SDS011;32098;49.448;7.904;2023-03-01T09:57:55;24.00;;;14.53;;
46391;SDS011;32098;49.448;7.904;2023-03-01T10:00:39;23.30;;;15.17;;
46391;SDS011;32098;49.448;7.904;2023-03-01T10:03:15;21.93;;;14.63;;
46391;SDS011;32098;49.448;7.904;2023-03-01T10:11:22;25.83;;;15.73;;
46391;SDS011;32098;49.448;7.904;2023-03-01T10:19:16;21.53;;;14.63;;
46391;SDS011;32098;49.448;7.904;2023-03-01T10:21:50;22.27;;;15.07;;
46391;SDS011;32098;49.448;7.904;2023-03-01T10:24:18;24.40;;;15.40;;
46391;SDS011;32098;49.448;7.904;2023-03-01T10:26:55;28.23;;;15.83;;
46391;SDS011;32098;49.448;7.904;2023-03-01T10:29:25;28.73;;;15.93;;
46391;SDS011;32098;49.448;7.904;2023-03-01T10:31:58;22.07;;;15.37;;
46391;SDS011;32098;49.448;7.904;2023-03-01T10:34:35;23.00;;;14.97;;
46391;SDS011;32098;49.448;7.904;2023-03-01T10:37:19;24.10;;;15.03;;
46391;SDS011;32098;49.448;7.904;2023-03-01T10:39:55;23.73;;;15.97;;
46391;SDS011;32098;49.448;7.904;2023-03-01T10:42:25;24.03;;;16.27;;
46391;SDS011;32098;49.448;7.904;2023-03-01T10:44:54;25.33;;;15.80;;
46391;SDS011;32098;49.448;7.904;2023-03-01T10:47:22;23.33;;;15.20;;
46391;SDS011;32098;49.448;7.904;2023-03-01T10:52:32;24.20;;;15.27;;
46391;SDS011;32098;49.448;7.904;2023-03-01T10:55:23;25.50;;;15.57;;
46391;SDS011;32098;49.448;7.904;2023-03-01T10:58:18;22.87;;;15.40;;
46391;SDS011;32098;49.448;7.904;2023-03-01T11:00:49;23.37;;;15.50;;
46391;SDS011;32098;49.448;7.904;2023-03-01T11:03:23;23.13;;;14.63;;
46391;SDS011;32098;49.448;7.904;2023-03-01T11:05:56;26.53;;;16.23;;
46391;SDS011;32098;49.448;7.904;2023-03-01T11:08:50;25.40;;;15.90;;
46391;SDS011;32098;49.448;7.904;2023-03-01T11:11:21;22.97;;;14.67;;
46391;SDS011;32098;49.448;7.904;2023-03-01T11:14:21;23.97;;;15.33;;
46391;SDS011;32098;49.448;7.904;2023-03-01T11:17:03;21.83;;;14.80;;
46391;SDS011;32098;49.448;7.904;2023-03-01T11:19:32;25.20;;;15.80;;
46391;SDS011;32098;49.448;7.904;2023-03-01T11:22:00;22.60;;;15.80;;
46391;SDS011;32098;49.448;7.904;2023-03-01T11:24:42;24.30;;;15.10;;
46391;SDS011;32098;49.448;7.904;2023-03-01T11:27:17;25.07;;;16.13;;
46391;SDS011;32098;49.448;7.904;2023-03-01T11:29:51;25.27;;;15.93;;
46391;SDS011;32098;49.448;7.904;2023-03-01T11:32:23;22.33;;;15.10;;
46391;SDS011;32098;49.448;7.904;2023-03-01T11:34:59;20.93;;;14.70;;
46391;SDS011;32098;49.448;7.904;2023-03-01T11:40:27;22.33;;;15.87;;
46391;SDS011;32098;49.448;7.904;2023-03-01T11:43:13;24.43;;;15.57;;
46391;SDS011;32098;49.448;7.904;2023-03-01T11:48:21;24.80;;;15.97;;
46391;SDS011;32098;49.448;7.904;2023-03-01T11:51:48;23.73;;;15.13;;
46391;SDS011;32098;49.448;7.904;2023-03-01T11:57:20;23.73;;;15.60;;
46391;SDS011;32098;49.448;7.904;2023-03-01T12:00:24;23.33;;;14.57;;
46391;SDS011;32098;49.448;7.904;2023-03-01T12:06:02;21.37;;;14.93;;
46391;SDS011;32098;49.448;7.904;2023-03-01T12:08:34;25.10;;;14.80;;
46391;SDS011;32098;49.448;7.904;2023-03-01T12:11:16;22.93;;;15.33;;
46391;SDS011;32098;49.448;7.904;2023-03-01T12:14:13;22.53;;;14.83;;
46391;SDS011;32098;49.448;7.904;2023-03-01T12:19:47;24.67;;;15.57;;
46391;SDS011;32098;49.448;7.904;2023-03-01T12:23:23;23.83;;;15.20;;
46391;SDS011;32098;49.448;7.904;2023-03-01T12:25:47;22.50;;;14.53;;
46391;SDS011;32098;49.448;7.904;2023-03-01T12:28:25;26.67;;;15.70;;
46391;SDS011;32098;49.448;7.904;2023-03-01T12:31:16;24.90;;;15.33;;
46391;SDS011;32098;49.448;7.904;2023-03-01T12:33:58;23.67;;;15.07;;
46391;SDS011;32098;49.448;7.904;2023-03-01T12:37:11;24.27;;;15.73;;
46391;SDS011;32098;49.448;7.904;2023-03-01T12:50:36;24.23;;;15.53;;
46391;SDS011;32098;49.448;7.904;2023-03-01T12:55:58;24.73;;;15.77;;
46391;SDS011;32098;49.448;7.904;2023-03-01T12:58:40;21.13;;;14.07;;
46391;SDS011;32098;49.448;7.904;2023-03-01T13:07:29;24.70;;;16.50;;
46391;SDS011;32098;49.448;7.904;2023-03-01T13:10:08;22.73;;;15.03;;
46391;SDS011;32098;49.448;7.904;2023-03-01T13:15:26;23.40;;;16.13;;
46391;SDS011;32098;49.448;7.904;2023-03-01T13:20:50;23.20;;;14.37;;
46391;SDS011;32098;49.448;7.904;2023-03-01T13:31:03;22.50;;;15.20;;
46391;SDS011;32098;49.448;7.904;2023-03-01T13:35:57;21.60;;;15.30;;
46391;SDS011;32098;49.448;7.904;2023-03-01T13:38:38;24.77;;;15.40;;
46391;SDS011;32098;49.448;7.904;2023-03-01T13:41:08;23.00;;;15.50;;
46391;SDS011;32098;49.448;7.904;2023-03-01T13:43:35;24.20;;;14.63;;
46391;SDS011;32098;49.448;7.904;2023-03-01T13:46:11;24.00;;;15.90;;
46391;SDS011;32098;49.448;7.904;2023-03-01T13:48:45;25.17;;;16.00;;
46391;SDS011;32098;49.448;7.904;2023-03-01T13:51:15;23.37;;;15.23;;
46391;SDS011;32098;49.448;7.904;2023-03-01T13:53:45;23.03;;;15.57;;
46391;SDS011;32098;49.448;7.904;2023-03-01T13:56:17;21.63;;;14.00;;
46391;SDS011;32098;49.448;7.904;2023-03-01T13:58:51;19.13;;;13.97;;
46391;SDS011;32098;49.448;7.904;2023-03-01T14:03:52;19.73;;;14.27;;
46391;SDS011;32098;49.448;7.904;2023-03-01T14:06:21;22.70;;;14.17;;
46391;SDS011;32098;49.448;7.904;2023-03-01T14:08:50;21.43;;;14.13;;
46391;SDS011;32098;49.448;7.904;2023-03-01T14:17:19;21.43;;;13.83;;
46391;SDS011;32098;49.448;7.904;2023-03-01T14:19:57;18.13;;;13.10;;
46391;SDS011;32098;49.448;7.904;2023-03-01T14:22:28;18.53;;;13.77;;
46391;SDS011;32098;49.448;7.904;2023-03-01T14:27:38;21.33;;;14.60;;
46391;SDS011;32098;49.448;7.904;2023-03-01T14:30:11;20.20;;;13.13;;
46391;SDS011;32098;49.448;7.904;2023-03-01T14:32:53;23.10;;;12.73;;
46391;SDS011;32098;49.448;7.904;2023-03-01T14:35:23;18.53;;;12.73;;
46391;SDS011;32098;49.448;7.904;2023-03-01T14:37:52;20.10;;;13.13;;
46391;SDS011;32098;49.448;7.904;2023-03-01T14:40:20;19.00;;;12.57;;
46391;SDS011;32098;49.448;7.904;2023-03-01T14:42:50;20.77;;;12.60;;
46391;SDS011;32098;49.448;7.904;2023-03-01T14:45:18;16.90;;;11.60;;
46391;SDS011;32098;49.448;7.904;2023-03-01T14:47:45;17.20;;;12.30;;
46391;SDS011;32098;49.448;7.904;2023-03-01T14:50:21;18.70;;;11.90;;
46391;SDS011;32098;49.448;7.904;2023-03-01T14:52:54;18.83;;;12.20;;
46391;SDS011;32098;49.448;7.904;2023-03-01T14:57:58;16.60;;;11.17;;
46391;SDS011;32098;49.448;7.904;2023-03-01T15:00:28;17.57;;;11.10;;
46391;SDS011;32098;49.448;7.904;2023-03-01T15:02:56;16.33;;;10.63;;
46391;SDS011;32098;49.448;7.904;2023-03-01T15:05:30;18.10;;;10.57;;
46391;SDS011;32098;49.448;7.904;2023-03-01T15:07:59;15.13;;;10.30;;
46391;SDS011;32098;49.448;7.904;2023-03-01T15:10:28;16.67;;;10.07;;
46391;SDS011;32098;49.448;7.904;2023-03-01T15:13:19;15.87;;;10.23;;
46391;SDS011;32098;49.448;7.904;2023-03-01T15:15:49;17.23;;;9.83;;
46391;SDS011;32098;49.448;7.904;2023-03-01T15:18:19;16.50;;;9.43;;
46391;SDS011;32098;49.448;7.904;2023-03-01T15:20:49;16.87;;;10.50;;
46391;SDS011;32098;49.448;7.904;2023-03-01T15:25:46;17.63;;;10.60;;
46391;SDS011;32098;49.448;7.904;2023-03-01T15:28:18;16.53;;;10.50;;
46391;SDS011;32098;49.448;7.904;2023-03-01T15:30:51;13.80;;;10.07;;
46391;SDS011;32098;49.448;7.904;2023-03-01T15:33:27;15.00;;;9.30;;
46391;SDS011;32098;49.448;7.904;2023-03-01T15:35:58;14.73;;;9.63;;
46391;SDS011;32098;49.448;7.904;2023-03-01T15:41:22;16.20;;;10.00;;
46391;SDS011;32098;49.448;7.904;2023-03-01T15:43:49;15.87;;;10.07;;
46391;SDS011;32098;49.448;7.904;2023-03-01T15:46:17;15.50;;;9.87;;
46391;SDS011;32098;49.448;7.904;2023-03-01T15:48:47;15.73;;;10.03;;
46391;SDS011;32098;49.448;7.904;2023-03-01T15:51:16;13.83;;;9.27;;
46391;SDS011;32098;49.448;7.904;2023-03-01T15:53:44;17.17;;;9.67;;
46391;SDS011;32098;49.448;7.904;2023-03-01T15:56:20;12.60;;;8.53;;
46391;SDS011;32098;49.448;7.904;2023-03-01T15:58:47;13.77;;;9.37;;
46391;SDS011;32098;49.448;7.904;2023-03-01T16:01:14;15.60;;;8.73;;
46391;SDS011;32098;49.448;7.904;2023-03-01T16:03:45;13.27;;;8.70;;
46391;SDS011;32098;49.448;7.904;2023-03-01T16:06:11;15.27;;;9.17;;
46391;SDS011;32098;49.448;7.904;2023-03-01T16:08:38;14.00;;;8.60;;
46391;SDS011;32098;49.448;7.904;2023-03-01T16:11:09;13.27;;;9.07;;
46391;SDS011;32098;49.448;7.904;2023-03-01T16:13:41;13.70;;;8.87;;
46391;SDS011;32098;49.448;7.904;2023-03-01T16:16:12;11.87;;;9.00;;
46391;SDS011;32098;49.448;7.904;2023-03-01T16:18:45;15.37;;;9.40;;
46391;SDS011;32098;49.448;7.904;2023-03-01T16:21:13;14.93;;;8.73;;
46391;SDS011;32098;49.448;7.904;2023-03-01T16:23:47;17.40;;;9.27;;
46391;SDS011;32098;49.448;7.904;2023-03-01T16:26:15;13.47;;;9.10;;
46391;SDS011;32098;49.448;7.904;2023-03-01T16:28:42;15.33;;;9.30;;